Tiempo atmosférico en la estación meteorológica de San Clemente, Cuenca (728 m.)



Fecha
DESCASC
Temp. máxima en grados centígrados (hora)
DESCASC
Temp. mínima en grados centígrados (hora)
DESCASC
Temp. media en grados centígrados
DESCASC
Racha de viento máxima en m/sg (hora)
DESCASC
Velocidad máxima media en intervalos de 10 minutos(hora)
DESCASC
Precipitaciones diarias en mm
DESCASC
Precipitaciones de 00:00 a 06:00 en mm
DESCASC
Precipitaciones de 06:00 a 12:00 en mm
DESCASC
Precipitaciones de 12:00 a 18:00 en mm
DESCASC
Precipitaciones de 18:00 a 24:00 en mm
DESCASC
22-08-2019 30.5 (16:40) 12.7 (07:40) 21.6 8.89 (23:40) 5 (23:20) 0 0 0 0 0
21-08-2019 23.6 (14:40) 19.1 (23:59) 21.4 12.78 (04:00) 7.5 (00:40) 0 0 0 0 0
20-08-2019 32.5 (18:30) 20.1 (22:50) 26.3 15 (19:50) 8.33 (20:10) 0 0 0 0 0
19-08-2019 35.7 (17:40) 15.4 (07:20) 25.6 12.5 (23:30) 7.22 (23:40) 0 0 0 0 0
18-08-2019 36.4 (18:00) 16.6 (00:00) 26.5 11.67 (16:10) 7.22 (19:40) 0 0 0 0 0
17-08-2019 37.6 (17:10) 16.9 (00:00) 27.2 11.11 (16:30) 6.11 (16:30) 0 0 0 0 0
16-08-2019 36.7 (17:50) 18.9 (00:00) 27.8 11.11 (17:10) 6.94 (17:30) 0 0 0 0 0
15-08-2019 35.8 (17:50) 16.5 (00:00) 26.1 8.89 (23:59) 4.72 (18:00) 0 0 0 0 0
14-08-2019 33.2 (17:20) 15.6 (00:00) 24.4 13.89 (15:30) 5 (14:00) 0 0 0 0 0
13-08-2019 30.7 (15:30) 18.5 (00:00) 24.6 11.39 (15:00) 5.83 (15:20) 0 0 0 0 0
12-08-2019 30.1 (17:30) 13.8 (00:00) 22 8.61 (17:40) 5.28 (19:10) 0 0 0 0 0
11-08-2019 31.7 (16:00) 16.4 (00:00) 24.1 13.61 (16:50) 8.61 (18:30) 0 0 0 0 0
10-08-2019 34.3 (17:40) 17.6 (00:00) 25.9 9.72 (16:10) 5.83 (17:40) 0 0 0 0 0
09-08-2019 34.4 (17:40) 17.4 (00:00) 25.9 16.11 (16:50) 8.89 (19:30) 0 0 0 0 0
08-08-2019 34.9 (17:40) 16.4 (00:00) 25.7 11.94 (18:00) 7.22 (18:10) 0 0 0 0 0
07-08-2019 33.8 (16:40) 18.4 (00:00) 26.1 -- (--) -- (--) 0 0 0 0 0
06-08-2019 36.5 (16:40) 16 (00:00) 26.3 -- (--) -- (--) 0 0 0 0 0
05-08-2019 36.9 (17:30) 16.9 (00:00) 26.9 9.17 (16:40) 5.56 (19:20) 0 0 0 0 0
04-08-2019 36.5 (17:00) 17.1 (00:00) 26.8 9.72 (16:00) 5.28 (20:00) 0 0 0 0 0
03-08-2019 36.8 (17:40) 19.3 (00:00) 28 10.56 (04:00) 5.56 (02:10) 0 0 0 0 0
02-08-2019 36.2 (17:40) 15 (00:00) 25.6 10.83 (23:50) 6.11 (23:50) 0 0 0 0 0
01-08-2019 35 (17:10) 17.2 (00:00) 26.1 11.11 (19:10) 6.67 (19:10) 0 0 0 0 0
31-07-2019 31.3 (16:20) 19.4 (00:00) 25.3 14.72 (17:10) 8.33 (03:50) 0 0 0 0 0
30-07-2019 33.5 (19:10) 13.4 (00:00) 23.4 10.28 (23:59) 6.11 (23:40) 0 0 0 0 0
29-07-2019 33.5 (17:20) 14.2 (00:00) 23.8 -- (--) -- (--) 0 0 0 0 0
28-07-2019 30 (17:10) 13.2 (00:00) 21.6 10.28 (15:00) 5.83 (19:10) 0 0 0 0 0
27-07-2019 28.5 (17:00) 14.8 (00:00) 21.7 -- (--) -- (--) 0 0 0 0 0
26-07-2019 32.5 (17:20) 21.1 (00:00) 26.8 -- (--) -- (--) 0 0 0 0 0

Gráficas

Temp. máximas Temp. mínimas Temp. medias Precipitaciones Rachas de viento máximas Velocidades máximas media en intervalos de 10 minutos

Datos horarios

Fecha y hora oficial Temperatura (ºC) Velocidad del viento (km/h) Dirección del viento Racha (km/h) Dirección de racha Precipitación (mm) Presión (hPa) Tendencia (hPa) Humedad (%)
2019-08-24 23:00:00 24.8 17 Sur 35 Sudoeste 0 935.2 1.4 41
2019-08-24 22:00:00 26.6 17 Sur 37 Sur 0 934.5 0.3 34
2019-08-24 21:00:00 28.8 10 Sudoeste 18 Sudoeste 0 933.9 -0.5 24
2019-08-24 20:00:00 31.3 12 Oeste 20 Oeste 0 933.8 -1 20
2019-08-24 19:00:00 31.9 8 Sudoeste 19 Sur 0 934.2 -1.2 20
2019-08-24 18:00:00 32.2 8 Sudoeste 18 Oeste 0 934.4 -1.3 19
2019-08-24 17:00:00 32.1 6 Sudeste 25 Sudoeste 0 934.8 -1.5 19
2019-08-24 16:00:00 32.3 7 Oeste 24 Sudeste 0 935.4 -1.5 20
2019-08-24 15:00:00 30.8 6 Sudeste 31 Sudoeste 0 935.7 -1.5 23
2019-08-24 14:00:00 30.2 9 Sudoeste 26 Sur 0 936.3 -1.1 25
2019-08-24 13:00:00 27.8 11 Sudoeste 22 Sudoeste 0 936.9 -0.2 29
2019-08-24 12:00:00 26.5 10 Sudoeste 20 Sudoeste 0 937.2 0.3 32
2019-08-24 11:00:00 24.6 12 Sudoeste 19 Sudoeste 0 937.4 0.7 39
2019-08-24 10:00:00 22.7 9 Sur 17 Sudoeste 0 937.1 0.6 43
2019-08-24 09:00:00 18.9 8 Sudeste 13 Sudeste 0 936.9 0.5 51
2019-08-24 08:00:00 15.3 7 Este 12 Sudeste 0 936.7 0.1 60
2019-08-24 07:00:00 15.2 6 Sudeste 20 Sudeste 0 936.5 0 58
2019-08-24 06:00:00 16.6 11 Sudeste 17 Sur 0 936.4 -0.3 57
2019-08-24 05:00:00 17 12 Sur 18 Sur 0 936.6 -0.2 56
2019-08-24 04:00:00 18.2 10 Sur 20 Sur 0 936.5 -0.2 53
2019-08-24 03:00:00 18.8 12 Sur 22 Sur 0 936.7 0.3 53
2019-08-24 02:00:00 20.3 13 Sur 27 Sudoeste 0 936.8 0.8 48
2019-08-24 01:00:00 21.7 13 Sur 27 Sur 0 936.7 1.2 48
2019-08-24 00:00:00 22.7 11 Sur 27 Sur 0 936.4 1.4 41
2019-08-23 23:00:00 23.5 10 Sur 23 Sudoeste 0 936 1.2 35
2019-08-23 22:00:00 23.8 7 Sur 15 Sudoeste 0 935.5 0.4 27
2019-08-23 21:00:00 27.4 7 Sudoeste 17 Sudoeste 0 935 -0.4 22
2019-08-23 20:00:00 29.5 8 Sur 21 Sudoeste 0 934.8 -0.8 17
2019-08-23 19:00:00 30.4 8 Sudoeste 23 Sur 0 935.1 -0.8 15
2019-08-23 18:00:00 30.8 13 Sur 25 Sur 0 935.4 -1.2 16
2019-08-23 17:00:00 30.7 9 Sudoeste 28 Sudoeste 0 935.6 -1.5 17
2019-08-23 16:00:00 30.5 10 Sudoeste 27 Sudoeste 0 935.9 -1.7 18
2019-08-23 15:00:00 29.5 16 Sudoeste 38 Sudoeste 0 936.6 -1.4 18
2019-08-23 14:00:00 28.5 18 Sur 37 Sudoeste 0 937.1 -1 24
2019-08-23 13:00:00 27 18 Sudoeste 41 Sudoeste 0 937.6 -0.5 24
2019-08-23 12:00:00 25.3 19 Sudoeste 35 Sudoeste 0 938 0.1 35
2019-08-23 11:00:00 23.4 14 Sur 26 Sudoeste 0 938.1 0.4 46
2019-08-23 10:00:00 21.8 13 Sur 22 Sur 0 938.1 0.8 54
2019-08-23 09:00:00 19.4 12 Sudeste 17 Sur 0 937.9 0.5 60
2019-08-23 08:00:00 16.5 11 Sur 17 Sur 0 937.7 0.4 70
2019-08-23 07:00:00 16.2 11 Sur 19 Sudeste 0 937.3 -0.2 69
2019-08-23 06:00:00 17.1 10 Sudeste 19 Sudeste 0 937.4 -0.2 67
2019-08-23 05:00:00 17.9 10 Sudeste 20 Sur 0 937.3 -0.4 66
2019-08-23 04:00:00 18.2 13 Sur 20 Sur 0 937.5 0 63
2019-08-23 03:00:00 18.5 12 Sur 21 Sur 0 937.6 0.4 64
2019-08-23 02:00:00 20.2 11 Sur 27 Sudoeste 0 937.7 0.6 62
2019-08-23 01:00:00 21.4 18 Sudoeste 32 Sudoeste 0 937.5 1.2 64
2019-08-23 00:00:00 22.4 15 Sudoeste 32 Sudoeste 0 937.2 1.4 62
2019-08-22 23:00:00 24.2 17 Sudoeste 32 Sudoeste 0 937.1 1.5 51
2019-08-22 22:00:00 24.8 12 Sur 16 Sur 0 936.3 0.7 39
2019-08-22 21:00:00 27.1 6 Sur 16 Sudoeste 0 935.8 0 33
2019-08-22 20:00:00 28.9 9 Sudoeste 23 Sudoeste 0 935.6 -0.6 25
2019-08-22 19:00:00 29.6 14 Sudoeste 27 Sur 0 935.6 -1.1 25
2019-08-22 18:00:00 29.7 14 Sur 27 Sur 0 935.8 -1.3 24
2019-08-22 17:00:00 29.7 9 Sudoeste 30 Oeste 0 936.2 -1.3 24
2019-08-22 16:00:00 29.1 8 Sudoeste 24 Sudoeste 0 936.7 -1.2 28
2019-08-22 15:00:00 28.9 13 Sudoeste 28 Oeste 0 937.1 -1 31
2019-08-22 14:00:00 27.3 14 Sudoeste 26 Oeste 0 937.5 -0.8 33
2019-08-22 13:00:00 26 14 Sur 28 Sudoeste 0 937.9 -0.3 35
2019-08-22 12:00:00 24.7 14 Sur 23 Sur 0 938.1 -0.1 41
2019-08-22 11:00:00 23 9 Sudoeste 22 Sudoeste 0 938.3 0.7 48
2019-08-22 10:00:00 20.5 7 Sudeste 15 Este 0 938.2 0.9 56
2019-08-22 09:00:00 16.8 7 Sudeste 13 Este 0 938.2 1.1 67
2019-08-22 08:00:00 13.4 6 Este 14 Este 0 937.6 0.4 79
2019-08-22 07:00:00 13.1 10 Este 16 Este 0 937.3 0.2 83
2019-08-22 06:00:00 13.4 8 Este 12 Sudeste 0 937.1 0 82
2019-08-22 05:00:00 14.3 7 Este 15 Este 0 937.2 0 81
2019-08-22 04:00:00 14.9 11 Este 17 Este 0 937.1 0.2 78
2019-08-22 03:00:00 16.1 12 Sudeste 17 Sudeste 0 937.1 -0.7 80
2019-08-22 02:00:00 16.5 9 Sur 19 Sudoeste 0 937.2 -1.2 77
2019-08-22 01:00:00 18.3 9 Sudoeste 21 Sudoeste 0 936.9 -0.4 71
2019-08-22 00:00:00 19.1 9 Sur 31 Sudeste 0 937.8 1.1 68
2019-08-21 23:00:00 20.1 23 Sudeste 44 Sudeste 0 938.4 2.6 68
2019-08-21 22:00:00 19.6 20 Sur 31 Sur 0 937.3 1.2 73
2019-08-21 21:00:00 20.3 18 Sur 36 Sur 0 936.7 0.7 75
2019-08-21 20:00:00 22.3 20 Sur 33 Sur 0 935.8 -0.7 66
2019-08-21 19:00:00 22.5 18 Sur 33 Sur 0 936.1 -0.6 65
2019-08-21 18:00:00 22.7 18 Sur 34 Sur 0 936 -0.8 65
2019-08-21 17:00:00 21.5 17 Sur 33 Sur 0 936.5 -0.6 72
2019-08-21 16:00:00 21.5 18 Sur 35 Sur 0 936.7 -0.8 71
2019-08-21 15:00:00 22.4 20 Sur 37 Sur 0 936.8 -0.9 65
2019-08-21 14:00:00 22.3 21 Sur 37 Sur 0 937.1 -0.3 65
2019-08-21 13:00:00 21.9 19 Sudoeste 37 Sudoeste 0 937.5 0 67
2019-08-21 12:00:00 22.1 21 Sur 37 Sudoeste 0 937.7 0.5 64
2019-08-21 11:00:00 22.1 21 Sudoeste 41 Sur 0 937.4 0.5 64
2019-08-21 10:00:00 20.7 21 Sur 40 Sur 0 937.5 0.8 73
2019-08-21 09:00:00 19.9 22 Sur 39 Sur 0 937.2 0.6 80
2019-08-21 08:00:00 19.7 18 Sur 33 Sur 0 936.9 0.1 81
2019-08-21 07:00:00 19.7 19 Sur 38 Sudoeste 0 936.7 -0.3 80
2019-08-21 06:00:00 19.8 18 Sur 36 Sudoeste 0 936.6 -0.6 78
2019-08-21 05:00:00 19.7 18 Sur 44 Sudoeste 0 936.8 -0.4 78
2019-08-21 04:00:00 19.6 24 Sur 46 Sur 0 937 -0.2 80
2019-08-21 03:00:00 20 20 Sur 44 Sur 0 937.2 0.1 78
2019-08-21 02:00:00 20.1 19 Sur 43 Sur 0 937.2 0.2 75
2019-08-21 01:00:00 20.1 23 Sur 46 Sur 0 937.2 1.2 73
2019-08-21 00:00:00 20.2 26 Sur 46 Sur 0 937.1 1.8 72
2019-08-20 23:00:00 20.1 20 Sur 49 Sudoeste 0 937 2.5 66
2019-08-20 22:00:00 20.6 24 Sur 48 Sur 0 936 2.4 63
2019-08-20 21:00:00 21.8 26 Sudoeste 51 Sur 0 935.3 2.1 61
2019-08-20 20:00:00 24 29 Sur 54 Sur 0 934.5 1.3 58
2019-08-20 19:00:00 27.2 27 Sur 49 Sur 0 933.6 0 55
2019-08-20 18:00:00 31.8 9 Oeste 23 Oeste 0 933.2 -0.8 24
2019-08-20 17:00:00 32 10 Oeste 32 Sudeste 0 933.2 -1.1 26
2019-08-20 16:00:00 31 14 Sudoeste 25 Oeste 0 933.6 -0.9 31
2019-08-20 15:00:00 30.5 14 Sur 25 Sudeste 0 934 -0.6 32
2019-08-20 14:00:00 29.8 7 Oeste 23 Sudoeste 0 934.3 0 31
2019-08-20 13:00:00 28.1 11 Sudoeste 22 Sudoeste 0 934.5 0.8 42
2019-08-20 12:00:00 26.3 10 Sur 24 Sudoeste 0 934.6 1.4 51
2019-08-20 11:00:00 23.9 11 Sudoeste 23 Sudoeste 0 934.3 1.3 65
2019-08-20 10:00:00 22.2 13 Sudoeste 27 Sudoeste 0 933.7 1.3 74
2019-08-20 09:00:00 21.3 13 Sudoeste 31 Sur 0 933.2 1 80
2019-08-20 08:00:00 20.7 12 Sudoeste 28 Sur 0 933 0.9 82
2019-08-20 07:00:00 20.4 13 Sudoeste 27 Sur 0 932.4 0.2 84
2019-08-20 06:00:00 20.3 11 Sur 28 Sur 0 932.2 0.2 83
2019-08-20 05:00:00 20.7 14 Sur 26 Sur 0 932.1 0.1 82
2019-08-20 04:00:00 20.9 14 Sur 37 Sudoeste 0 932.2 0 81
2019-08-20 03:00:00 21.3 19 Sudoeste 42 Sur 0 932 0 81
2019-08-20 02:00:00 21.8 21 Sur 44 Sur 0 932 0 80
2019-08-20 01:00:00 22.3 20 Sur 44 Sur 0 932.2 0.6 79
2019-08-20 00:00:00 22.9 22 Sur 45 Sur 0 932 1.1 76
2019-08-19 23:00:00 24.6 21 Sur 38 Sur 0 932 1.8 71
2019-08-19 22:00:00 27.3 22 Sur 41 Sudoeste 0 931.6 1.4 59
2019-08-19 21:00:00 30.3 6 Sudoeste 22 Norte 0 930.9 0.4 21
2019-08-19 20:00:00 34.3 14 Noroeste 31 Norte 0 930.2 -0.7 16
2019-08-19 19:00:00 34.7 16 Norte 37 Norte 0 930.2 -1.4 16
2019-08-19 18:00:00 34.9 22 Norte 40 Norte 0 930.5 -1.5 16
2019-08-19 17:00:00 35.3 14 Norte 38 Noroeste 0 930.9 -1.6 17
2019-08-19 16:00:00 34.5 13 Norte 38 Norte 0 931.6 -1.6 20
2019-08-19 15:00:00 33.8 13 Norte 29 Oeste 0 932 -1.3 20
2019-08-19 14:00:00 32.6 8 Oeste 25 Noroeste 0 932.5 -0.8 24
2019-08-19 13:00:00 31.1 10 Noroeste 21 Oeste 0 933.2 0.2 26
2019-08-19 12:00:00 29.1 6 Oeste 14 Noroeste 0 933.3 0.4 32
2019-08-19 11:00:00 26.3 4 Noroeste 14 Noroeste 0 933.3 0.7 33
2019-08-19 10:00:00 23.6 12 Norte 17 Noroeste 0 933 0.7 37
2019-08-19 09:00:00 21.4 9 Norte 15 Norte 0 932.9 0.8 36
2019-08-19 08:00:00 16.6 5 Este 10 Este 0 932.6 0.6 34
2019-08-19 07:00:00 16.1 4 Este 12 Este 0 932.3 0 34
2019-08-19 06:00:00 16.3 6 Este 9 Este 0 932.1 -0.4 33
2019-08-19 05:00:00 17 3 Este 4 Este 0 932 -0.5 31
2019-08-19 04:00:00 17.8 3 Norte 8 Norte 0 932.3 -0.1 30
2019-08-19 03:00:00 18.8 5 Norte 8 Norte 0 932.5 0.5 27
2019-08-19 02:00:00 20.7 3 Este 8 Noroeste 0 932.5 1.2 23
2019-08-19 01:00:00 23.1 6 Noroeste 7 Noroeste 0 932.4 1.9 21
2019-08-19 00:00:00 24.2 5 Norte 14 Norte 0 932 2.2 20
2019-08-18 23:00:00 25.2 10 Norte 12 Norte 0 931.3 1.8 19
2019-08-18 22:00:00 28 11 Norte 27 Nordeste 0 930.5 0.9 18
2019-08-18 21:00:00 31.6 20 Norte 33 Norte 0 929.8 -0.1 16
2019-08-18 20:00:00 34.5 24 Norte 37 Norte 0 929.5 -0.8 14
2019-08-18 19:00:00 35 25 Norte 40 Norte 0 929.6 -1.2 15
2019-08-18 18:00:00 36.3 19 Noroeste 40 Norte 0 929.9 -1.3 13
2019-08-18 17:00:00 36.1 24 Norte 42 Noroeste 0 930.3 -1.3 13
2019-08-18 16:00:00 35.8 21 Noroeste 41 Norte 0 930.8 -1.3 15
2019-08-18 15:00:00 34.8 21 Norte 39 Noroeste 0 931.2 -1.1 16
2019-08-18 14:00:00 34.5 17 Norte 33 Norte 0 931.6 -0.7 17
2019-08-18 13:00:00 33.2 17 Norte 27 Noroeste 0 932.1 0 16
2019-08-18 12:00:00 31.2 11 Norte 22 Noroeste 0 932.3 0.4 18
2019-08-18 11:00:00 28.5 13 Noroeste 23 Norte 0 932.3 0.9 25
2019-08-18 10:00:00 25.8 5 Noroeste 10 Noroeste 0 932.1 1.3 32
2019-08-18 09:00:00 21.4 4 Este 13 Este 0 931.9 1.1 53
2019-08-18 08:00:00 17.4 8 Este 14 Este 0 931.4 0.4 60
2019-08-18 07:00:00 16.6 10 Este 13 Este 0 930.8 -0.2 61
2019-08-18 06:00:00 18.1 6 Este 11 Este 0 930.8 -0.5 57
2019-08-18 05:00:00 19.2 6 Este 12 Este 0 931 -0.5 52
2019-08-18 04:00:00 20.6 8 Este 11 Este 0 931 -0.1 52
2019-08-18 03:00:00 21.7 5 Sur 9 Sudoeste 0 931.3 0.1 49
2019-08-18 02:00:00 22.5 4 Este 11 Sur 0 931.5 0.5 40
2019-08-18 01:00:00 26.4 7 Noroeste 36 Nordeste 0 931.1 0.2 33
2019-08-18 00:00:00 27.5 8 Sudoeste 15 Sudoeste 0 931.2 0.8 34
2019-08-17 23:00:00 29.4 9 Sudoeste 22 Oeste 0 931 0.7 31
2019-08-17 22:00:00 31.2 9 Sudoeste 17 Sudoeste 0 930.9 0.1 28
2019-08-17 21:00:00 33.1 9 Norte 25 Norte 0 930.4 -0.9 18
2019-08-17 20:00:00 35.9 14 Norte 33 Nordeste 0 930.3 -1.4 16
2019-08-17 19:00:00 36.6 17 Norte 32 Norte 0 930.8 -1.5 15
2019-08-17 18:00:00 36.9 18 Norte 34 Norte 0 931.3 -1.7 15
2019-08-17 17:00:00 37.3 18 Norte 40 Norte 0 931.7 -1.9 15
2019-08-17 16:00:00 37.1 17 Norte 39 Noroeste 0 932.3 -1.7 16
2019-08-17 15:00:00 36.1 21 Norte 36 Norte 0 933 -1.5 16
2019-08-17 14:00:00 35.3 16 Noroeste 30 Noroeste 0 933.6 -1 19
2019-08-17 13:00:00 34.1 10 Noroeste 19 Noroeste 0 934 -0.8 22
2019-08-17 12:00:00 31.5 8 Noroeste 18 Noroeste 0 934.5 -0.2 28
2019-08-17 11:00:00 28.7 8 Noroeste 16 Norte 0 934.6 0.3 35
2019-08-17 10:00:00 25.5 3 Oeste 7 Oeste 0 934.8 0.8 49
2019-08-17 09:00:00 21.8 5 Sudeste 12 Este 0 934.7 1 63
2019-08-17 08:00:00 17.8 9 Este 13 Este 0 934.3 0.5 77
2019-08-17 07:00:00 17.9 9 Este 12 Este 0 934 0.2 78
2019-08-17 06:00:00 18.1 8 Este 11 Este 0 933.7 0 71
2019-08-17 05:00:00 19.6 6 Este 11 Sur 0 933.8 0 65
2019-08-17 04:00:00 21.5 6 Sudoeste 10 Sur 0 933.8 0.1 67
2019-08-17 03:00:00 22.8 8 Sur 15 Sur 0 933.7 0.3 62
2019-08-17 02:00:00 23.6 8 Sur 19 Sur 0 933.8 0.5 61
2019-08-17 01:00:00 24.7 9 Sur 18 Sur 0 933.7 0.6 55
2019-08-17 00:00:00 26.1 11 Sudoeste 19 Sudoeste 0 933.4 1 48
2019-08-16 23:00:00 28 10 Sudoeste 21 Sudoeste 0 933.3 1.2 42
2019-08-16 22:00:00 29.7 8 Oeste 15 Sudoeste 0 933.1 0.9 33
2019-08-16 21:00:00 32.4 11 Noroeste 26 Noroeste 0 932.4 -0.2 19
2019-08-16 20:00:00 35.1 20 Norte 33 Noroeste 0 932.1 -1 17
2019-08-16 19:00:00 36 18 Noroeste 37 Norte 0 932.2 -1.6 16
2019-08-16 18:00:00 36.1 19 Norte 40 Noroeste 0 932.6 -1.6 15
2019-08-16 17:00:00 36.1 15 Norte 37 Norte 0 933.1 -1.8 16
2019-08-16 16:00:00 35.9 20 Norte 36 Noroeste 0 933.8 -1.6 17
2019-08-16 15:00:00 34.5 11 Norte 29 Norte 0 934.2 -1.5 21
2019-08-16 14:00:00 33.3 9 Oeste 21 Oeste 0 934.9 -1.1 26
2019-08-16 13:00:00 30.7 10 Sudoeste 26 Sudoeste 0 935.4 -0.5 30
2019-08-16 12:00:00 27.9 13 Sudoeste 27 Sur 0 935.7 0 38
2019-08-16 11:00:00 25.8 15 Sudoeste 32 Sudoeste 0 936 0.5 47
2019-08-16 10:00:00 23.2 16 Sudoeste 33 Sudoeste 0 935.9 0.8 55
2019-08-16 09:00:00 21.4 16 Sudoeste 30 Sudoeste 0 935.7 0.7 61
2019-08-16 08:00:00 19.4 12 Sur 25 Sur 0 935.5 0.4 69
2019-08-16 07:00:00 19 11 Sur 22 Sur 0 935.1 0.2 71
2019-08-16 06:00:00 19.7 11 Sur 21 Sur 0 935 -0.2 67
2019-08-16 05:00:00 20.1 12 Sur 26 Sur 0 935.1 0 68
2019-08-16 04:00:00 20.9 14 Sur 26 Sur 0 934.9 -0.2 64
2019-08-16 03:00:00 21.7 9 Sur 27 Sudoeste 0 935.2 0.3 63
2019-08-16 02:00:00 22.3 16 Sur 33 Sur 0 935.1 0.7 61
2019-08-16 01:00:00 23.4 15 Sur 35 Sudoeste 0 935.1 1.2 61
2019-08-16 00:00:00 25.5 16 Sur 32 Sur 0 934.9 1 49
2019-08-15 23:00:00 25.1 12 Este 16 Este 0 934.4 0.8 23
2019-08-15 22:00:00 28.5 6 Nordeste 12 Nordeste 0 933.9 0.3 19
2019-08-15 21:00:00 31.6 9 Norte 14 Noroeste 0 933.9 0.1 16
2019-08-15 20:00:00 34.4 11 Noroeste 25 Noroeste 0 933.6 -0.5 14
2019-08-15 19:00:00 35 14 Norte 27 Norte 0 933.6 -0.8 14
2019-08-15 18:00:00 35.2 17 Norte 30 Norte 0 933.8 -1 13
2019-08-15 17:00:00 35.1 12 Norte 28 Nordeste 0 934.1 -1.4 14
2019-08-15 16:00:00 35.4 11 Nordeste 23 Nordeste 0 934.4 -1.5 14
2019-08-15 15:00:00 34.7 9 Norte 25 Noroeste 0 934.8 -1.6 16
2019-08-15 14:00:00 33.1 8 Norte 19 Norte 0 935.5 -0.9 16
2019-08-15 13:00:00 31.4 5 Sudoeste 13 Sur 0 935.9 -0.6 25
2019-08-15 12:00:00 29.3 4 Sudeste 15 Sur 0 936.4 0 32
2019-08-15 11:00:00 26.8 8 Sudoeste 18 Sudoeste 0 936.4 0.3 43
2019-08-15 10:00:00 23.9 13 Sudoeste 21 Sur 0 936.5 0.8 53
2019-08-15 09:00:00 20.6 5 Sur 9 Sudeste 0 936.4 1.1 56
2019-08-15 08:00:00 17.2 6 Sudeste 11 Este 0 936.1 0.8 65
2019-08-15 07:00:00 16.9 6 Este 14 Este 0 935.7 0.3 67
2019-08-15 06:00:00 17.5 11 Este 17 Este 0 935.3 -0.2 67
2019-08-15 05:00:00 17.8 10 Este 17 Este 0 935.3 -0.5 64
2019-08-15 04:00:00 17.9 11 Este 16 Este 0 935.4 -0.2 55
2019-08-15 03:00:00 19.2 7 Este 11 Sudeste 0 935.5 -0.2 58
2019-08-15 02:00:00 20.1 9 Sudeste 17 Sur 0 935.8 0.2 44
2019-08-15 01:00:00 20 8 Este 12 Este 0 935.6 0.5 28
2019-08-15 00:00:00 21.5 5 Sudeste 12 Este 0 935.7 1.1 25
2019-08-14 23:00:00 23.4 8 Este 14 Este 0 935.6 1.2 22
2019-08-14 22:00:00 26.1 7 Este 12 Nordeste 0 935.1 0.6 21
2019-08-14 21:00:00 29.6 9 Nordeste 20 Nordeste 0 934.6 0.1 17
2019-08-14 20:00:00 32.2 13 Nordeste 25 Nordeste 0 934.4 -0.6 15
2019-08-14 19:00:00 32.9 17 Nordeste 27 Norte 0 934.5 -0.9 15
2019-08-14 18:00:00 32.9 14 Norte 27 Norte 0 934.5 -1.5 15
2019-08-14 17:00:00 32.5 13 Norte 30 Norte 0 935 -1.5 15
2019-08-14 16:00:00 31.9 13 Norte 50 Norte 0 935.4 -1.5 17
2019-08-14 15:00:00 31.7 17 Noroeste 32 Norte 0 936 -1.2 18
2019-08-14 14:00:00 30.5 18 Norte 30 Norte 0 936.5 -0.7 19
2019-08-14 13:00:00 29.3 6 Norte 17 Nordeste 0 936.9 -0.5 21
2019-08-14 12:00:00 26.8 5 Este 13 Oeste 0 937.2 0 40
2019-08-14 11:00:00 24 5 Sur 15 Sur 0 937.2 0.2 54
2019-08-14 10:00:00 20.9 9 Sur 19 Sudoeste 0 937.4 0.7 73
2019-08-14 09:00:00 18.7 9 Sudoeste 19 Sudoeste 0 937.2 0.6 82
2019-08-14 08:00:00 16.3 7 Sur 9 Sudeste 0 937 0.5 91
2019-08-14 07:00:00 16.3 8 Sur 15 Sur 0 936.7 0.2 92
2019-08-14 06:00:00 16.1 8 Sur 13 Sudeste 0 936.6 0.2 90
2019-08-14 05:00:00 17.1 7 Sudeste 15 Sur 0 936.5 0.4 87
2019-08-14 04:00:00 18 10 Sudeste 19 Sudeste 0 936.5 0.4 86
2019-08-14 03:00:00 19.1 11 Sur 29 Sur 0 936.4 0.5 80
2019-08-14 02:00:00 20.2 13 Sur 27 Sur 0 936.1 0.6 74
2019-08-14 01:00:00 20.4 13 Sur 21 Sudoeste 0 936.1 1.1 64
2019-08-14 00:00:00 19.9 7 Sudeste 12 Sudeste 0 935.9 1.4 30
2019-08-13 23:00:00 21.8 7 Este 11 Este 0 935.5 1.5 27
2019-08-13 22:00:00 23.9 6 Este 15 Nordeste 0 935 1 26
2019-08-13 21:00:00 27.3 13 Nordeste 31 Nordeste 0 934.5 0.7 20
2019-08-13 20:00:00 29.2 18 Norte 33 Norte 0 934 0 21
2019-08-13 19:00:00 29.8 18 Nordeste 32 Norte 0 934 -0.5 18
2019-08-13 18:00:00 30 15 Norte 35 Norte 0 933.8 -0.9 22
2019-08-13 17:00:00 30.1 16 Norte 34 Norte 0 934 -1.2 19
2019-08-13 16:00:00 30 20 Norte 36 Norte 0 934.5 -1.2 21
2019-08-13 15:00:00 29.7 9 Norte 41 Norte 0 934.7 -1.3 26
2019-08-13 14:00:00 28.2 11 Oeste 24 Sur 0 935.2 -0.7 30
2019-08-13 13:00:00 27.1 10 Sudoeste 36 Sudoeste 0 935.7 -0.3 40
2019-08-13 12:00:00 24.2 15 Sudoeste 37 Sur 0 936 0.2 54
2019-08-13 11:00:00 23.1 15 Sudoeste 33 Sudoeste 0 935.9 0.2 59
2019-08-13 10:00:00 21.3 18 Sur 32 Sudoeste 0 936 0.9 64
2019-08-13 09:00:00 20.3 13 Sur 24 Sur 0 935.8 1.1 71
2019-08-13 08:00:00 19.1 10 Sur 19 Sudeste 0 935.7 0.8 77
2019-08-13 07:00:00 18.9 14 Sur 34 Sur 0 935.1 -0.4 77
2019-08-13 06:00:00 19.3 15 Sur 37 Sur 0 934.7 -0.8 73
2019-08-13 05:00:00 19.6 19 Sur 33 Sur 0 934.9 -0.6 71
2019-08-13 04:00:00 20 17 Sur 32 Sur 0 935.5 0 71
2019-08-13 03:00:00 19.8 18 Sur 34 Sur 0 935.5 0.2 78
2019-08-13 02:00:00 20 16 Sur 31 Sur 0 935.5 0.9 79
2019-08-13 01:00:00 20.3 17 Sur 34 Sur 0 935.5 1.5 77
2019-08-13 00:00:00 20.7 10 Sur 22 Sur 0 935.3 2.2 70
2019-08-12 23:00:00 21 11 Este 17 Este 0 934.6 2.2 21
2019-08-12 22:00:00 22.9 12 Nordeste 16 Nordeste 0 934 1.7 19
2019-08-12 21:00:00 25.8 12 Este 26 Este 0 933.1 0.7 16
2019-08-12 20:00:00 28.6 12 Nordeste 30 Nordeste 0 932.4 -0.4 14
2019-08-12 19:00:00 29.2 15 Nordeste 27 Nordeste 0 932.3 -1 13
2019-08-12 18:00:00 29.4 9 Norte 31 Nordeste 0 932.4 -1.3 13
2019-08-12 17:00:00 28.8 9 Norte 27 Nordeste 0 932.8 -1.2 14
2019-08-12 16:00:00 29.3 8 Norte 27 Nordeste 0 933.3 -1.2 15
2019-08-12 15:00:00 28.7 12 Nordeste 29 Nordeste 0 933.7 -0.8 17
2019-08-12 14:00:00 27.6 9 Nordeste 24 Este 0 934 -0.4 18
2019-08-12 13:00:00 26.9 12 Este 28 Este 0 934.5 0.3 21
2019-08-12 12:00:00 25.8 11 Sudeste 29 Este 0 934.5 0.6 22
2019-08-12 11:00:00 24.1 13 Este 23 Este 0 934.4 1 31
2019-08-12 10:00:00 19.8 10 Norte 17 Norte 0 934.2 1.4 38
2019-08-12 09:00:00 14.6 6 Norte 12 Norte 0 933.9 1.2 41
2019-08-12 08:00:00 14.1 9 Norte 12 Norte 0 933.4 0.8 41
2019-08-12 07:00:00 14.5 10 Norte 13 Norte 0 932.8 -0.2 40
2019-08-12 06:00:00 15.4 7 Norte 13 Norte 0 932.7 -0.6 37
2019-08-12 05:00:00 15.9 8 Norte 13 Norte 0 932.6 -1 36
2019-08-12 04:00:00 16.5 2 Oeste 17 Norte 0 933 -0.8 35
2019-08-12 03:00:00 17.5 12 Norte 17 Norte 0 933.3 -0.5 34
2019-08-12 02:00:00 17.9 11 Norte 14 Norte 0 933.6 0.1 32
2019-08-12 01:00:00 18.7 10 Norte 15 Norte 0 933.8 1.2 29
2019-08-12 00:00:00 20.7 11 Norte 26 Nordeste 0 933.8 1.8 27
2019-08-11 23:00:00 22.3 9 Norte 17 Norte 0 933.5 2 20
2019-08-11 22:00:00 24.3 12 Norte 25 Norte 0 932.6 1 18
2019-08-11 21:00:00 27 20 Norte 35 Norte 0 932 0.1 16
2019-08-11 20:00:00 29.4 28 Norte 41 Norte 0 931.5 -0.5 15
2019-08-11 19:00:00 30.8 28 Norte 48 Norte 0 931.6 -0.7 16
2019-08-11 18:00:00 31.2 29 Noroeste 44 Norte 0 931.9 -1.1 15
2019-08-11 17:00:00 31.7 24 Noroeste 49 Norte 0 932 -1.3 17
2019-08-11 16:00:00 31.3 25 Noroeste 45 Norte 0 932.3 -1.4 17
2019-08-11 15:00:00 30.6 21 Noroeste 41 Noroeste 0 933 -0.8 20
2019-08-11 14:00:00 29.4 17 Noroeste 38 Norte 0 933.3 -0.8 20
2019-08-11 13:00:00 28.6 22 Norte 34 Norte 0 933.7 -0.3 22
2019-08-11 12:00:00 26.6 7 Oeste 17 Norte 0 933.8 -0.1 29
2019-08-11 11:00:00 23.2 10 Norte 15 Norte 0 934.1 0.4 33
2019-08-11 10:00:00 21 8 Noroeste 13 Noroeste 0 934 0.8 37
2019-08-11 09:00:00 19.9 11 Norte 16 Norte 0 933.9 1.1 39
2019-08-11 08:00:00 17 9 Norte 12 Norte 0 933.7 1.5 47
2019-08-11 07:00:00 17.2 8 Nordeste 17 Nordeste 0 933.2 0.9 45
2019-08-11 06:00:00 16.9 13 Norte 15 Norte 0 932.8 0.2 48
2019-08-11 05:00:00 17.7 11 Norte 15 Norte 0 932.2 -0.6 47
2019-08-11 04:00:00 18.9 13 Norte 16 Norte 0 932.3 -0.9 45
2019-08-11 03:00:00 20.4 12 Norte 15 Noroeste 0 932.6 -0.5 44
2019-08-11 02:00:00 22.3 9 Norte 12 Este 0 932.8 -0.3 42
2019-08-11 01:00:00 23.3 11 Norte 13 Norte 0 933.2 0.3 45
2019-08-11 00:00:00 24.9 3 Noroeste 5 Noroeste 0 933.1 0.6 40
2019-08-10 23:00:00 26.6 4 Este 7 Este 0 933.1 0.9 38
2019-08-10 22:00:00 28.9 4 Este 11 Nordeste 0 932.9 0.2 36
2019-08-10 21:00:00 31.4 10 Nordeste 23 Norte 0 932.5 -0.8 32
2019-08-10 20:00:00 33.2 14 Norte 29 Norte 0 932.2 -1.5 29
2019-08-10 19:00:00 33.5 18 Norte 31 Norte 0 932.7 -1.8 27
2019-08-10 18:00:00 33.5 18 Norte 35 Noroeste 0 933.3 -2 28
2019-08-10 17:00:00 33.6 21 Norte 35 Norte 0 933.7 -2.3 29
2019-08-10 16:00:00 32.6 15 Norte 32 Noroeste 0 934.5 -1.9 32
2019-08-10 15:00:00 31.5 15 Norte 35 Noroeste 0 935.3 -1.4 34
2019-08-10 14:00:00 30 9 Oeste 26 Norte 0 936 -0.6 39
2019-08-10 13:00:00 28.7 12 Noroeste 27 Norte 0 936.4 -0.3 44
2019-08-10 12:00:00 27.5 12 Norte 23 Norte 0 936.7 0.1 46
2019-08-10 11:00:00 25 9 Nordeste 20 Norte 0 936.6 0.2 53
2019-08-10 10:00:00 23.9 8 Norte 15 Nordeste 0 936.7 0.8 52
2019-08-10 09:00:00 22.1 4 Este 8 Este 0 936.6 1.3 60
2019-08-10 08:00:00 18.4 3 Norte 12 Nordeste 0 936.4 1.4 76
2019-08-10 07:00:00 17.8 11 Nordeste 14 Norte 0 935.9 0.9 79
2019-08-10 06:00:00 18.2 9 Norte 13 Norte 0 935.3 0.3 76
2019-08-10 05:00:00 19.6 9 Norte 10 Norte 0 935 -0.3 73
2019-08-10 04:00:00 20.2 9 Norte 13 Norte 0 935 0 71
2019-08-10 03:00:00 21.1 8 Norte 10 Norte 0 935 0.2 68
2019-08-10 02:00:00 22.9 2 Nordeste 14 Nordeste 0 935.3 1.1 64
2019-08-10 01:00:00 23.6 6 Nordeste 13 Nordeste 0 935 1.7 57
2019-08-10 00:00:00 25.4 3 Nordeste 15 Nordeste 0 934.8 2 45
2019-08-09 23:00:00 27.2 11 Nordeste 36 Nordeste 0 934.2 1.6 40
2019-08-09 22:00:00 29.1 22 Nordeste 31 Norte 0 933.3 0.7 36
2019-08-09 21:00:00 31.2 18 Norte 36 Norte 0 932.8 0.1 30
2019-08-09 20:00:00 32.8 28 Norte 49 Norte 0 932.6 -0.4 26
2019-08-09 19:00:00 33.6 30 Norte 45 Norte 0 932.6 -0.9 24
2019-08-09 18:00:00 34 30 Norte 44 Norte 0 932.7 -1.4 24
2019-08-09 17:00:00 33.5 26 Norte 58 Norte 0 933 -1.3 25
2019-08-09 16:00:00 33.1 26 Norte 45 Noroeste 0 933.5 -1 26
2019-08-09 15:00:00 32.1 29 Norte 46 Norte 0 934.1 -0.4 28
2019-08-09 14:00:00 31.3 29 Norte 44 Norte 0 934.3 0 29
2019-08-09 13:00:00 30.2 25 Norte 42 Norte 0 934.5 0.2 34
2019-08-09 12:00:00 29.2 24 Norte 36 Norte 0 934.5 0.6 37
2019-08-09 11:00:00 27.4 17 Norte 27 Norte 0 934.3 0.5 41
2019-08-09 10:00:00 24.5 10 Norte 23 Norte 0 934.3 0.9 42
2019-08-09 09:00:00 21.4 11 Norte 15 Norte 0 933.9 0.9 39
2019-08-09 08:00:00 18.9 7 Norte 11 Norte 0 933.8 0.8 40
2019-08-09 07:00:00 17.7 8 Norte 13 Norte 0 933.4 0.7 37
2019-08-09 06:00:00 19.5 9 Norte 16 Norte 0 933 0.5 33
2019-08-09 05:00:00 20.2 12 Norte 14 Norte 0 933 0.7 32
2019-08-09 04:00:00 20.8 10 Norte 12 Norte 0 932.7 0.4 33
2019-08-09 03:00:00 20.4 4 Sudeste 14 Sudoeste 0 932.5 0.6 39
2019-08-09 02:00:00 23.5 7 Norte 16 Norte 0 932.3 0.6 34
2019-08-09 01:00:00 22.9 6 Norte 12 Norte 0 932.3 1.3 38
2019-08-09 00:00:00 25.5 5 Noroeste 10 Noroeste 0 931.9 1.2 33
2019-08-08 23:00:00 26.2 3 Sudoeste 5 Sudoeste 0 931.7 1.2 30
2019-08-08 22:00:00 29 4 Nordeste 12 Norte 0 931 0.1 26
2019-08-08 21:00:00 32.1 11 Norte 30 Norte 0 930.7 -0.4 22
2019-08-08 20:00:00 33.9 19 Norte 32 Norte 0 930.5 -0.9 21
2019-08-08 19:00:00 34.7 22 Norte 39 Norte 0 930.9 -1.1 20
2019-08-08 18:00:00 34.6 21 Norte 43 Noroeste 0 931.1 -1.4 21
2019-08-08 17:00:00 34.4 18 Norte 38 Noroeste 0 931.4 -1.6 22
2019-08-08 16:00:00 34 18 Noroeste 37 Norte 0 932 -1.5 23
2019-08-08 15:00:00 32.3 14 Noroeste 27 Norte 0 932.5 -1.3 25
2019-08-08 14:00:00 30.9 12 Noroeste 23 Noroeste 0 933 -0.6 29
2019-08-08 13:00:00 28.9 8 Oeste 27 Norte 0 933.5 0.1 32
2019-08-08 12:00:00 27.5 6 Noroeste 18 Norte 0 933.8 0.5 37
2019-08-08 11:00:00 26 5 Oeste 12 Sur 0 933.6 0.5 41
2019-08-08 10:00:00 23.3 2 Norte 7 Sudeste 0 933.4 0.5 47
2019-08-08 09:00:00 20.6 3 Sur 5 Sur 0 933.3 0.5 51
2019-08-08 08:00:00 16.6 2 Este 6 Oeste 0 933.1 0.4 56
2019-08-08 07:00:00 16.7 5 Este 7 Este 0 932.9 0.3 60
2019-08-08 06:00:00 16.9 4 Sudeste 6 Sudeste 0 932.8 0 55
2019-08-08 05:00:00 17.8 2 Nordeste 9 Norte 0 932.7 -0.2 54
2019-08-08 04:00:00 18.8 4 Nordeste 9 Norte 0 932.6 -0.5 51
2019-08-08 03:00:00 19.7 6 Noroeste -- -- 0 932.8 0 50
2019-08-08 02:00:00 20.6 4 Este 8 Norte 0 932.9 0.6 48
2019-08-08 01:00:00 21.5 9 Norte 13 Nordeste 0 933.1 1.1 45
2019-08-08 00:00:00 23.8 12 Nordeste -- -- 0 932.8 1.2 42
2019-08-07 23:00:00 25.2 5 Nordeste 11 Nordeste 0 932.3 1.5 36
2019-08-07 22:00:00 26.1 8 Nordeste 30 Nordeste 0 932 0.5 33
2019-08-07 21:00:00 27.5 20 Nordeste 32 Norte 0 931.6 0.8 29
2019-08-07 20:00:00 29 19 Nordeste 36 Norte 0 930.8 0 28
2019-08-07 19:00:00 30.5 21 Norte 36 Nordeste 0 931.5 0.2 25
2019-08-07 18:00:00 30.9 26 Nordeste -- -- 0 930.8 -0.6 23
2019-08-07 17:00:00 32.7 21 Norte 41 Norte 0 930.8 -0.7 21
2019-08-07 16:00:00 32.3 16 Norte 40 Norte 0 931.3 0 21
2019-08-07 15:00:00 32.2 24 Norte -- -- 0 931.4 -0.2 19
2019-08-07 14:00:00 30.9 23 Norte -- -- 0 931.5 0.1 20
2019-08-07 13:00:00 30.2 -- -- -- -- 0 931.3 0.1 23
2019-08-07 12:00:00 27.9 29 Norte 41 Norte 0 931.6 0.9 33
2019-08-07 11:00:00 27.4 24 Norte 36 Norte 0 931.4 1.2 32
2019-08-07 10:00:00 23.8 19 Norte 33 Noroeste 0 931.2 1.2 40
2019-08-07 09:00:00 21.2 14 Norte 21 Norte 0 930.7 0.8 37
2019-08-07 08:00:00 19 8 Norte 19 Nordeste 0 930.2 0.4 36
2019-08-07 07:00:00 18.7 13 Norte 15 Norte 0 930 0.2 34
2019-08-07 06:00:00 19 9 Norte 10 Norte 0 929.9 0 26
2019-08-07 05:00:00 19.5 8 Norte 9 Norte 0 929.8 -0.1 25
2019-08-07 04:00:00 18.7 5 Norte 10 Norte 0 929.8 -0.2 26
2019-08-07 03:00:00 20.1 10 Norte 12 Norte 0 929.9 -0.1 25
2019-08-07 02:00:00 19.4 6 Este 10 Este 0 929.9 0.2 22
2019-08-07 01:00:00 22.3 4 Norte 11 Norte 0 930 1 20
2019-08-07 00:00:00 23.8 3 Noroeste 12 Norte 0 930 1.4 19
2019-08-06 23:00:00 25.6 4 Noroeste 6 Noroeste 0 929.7 1.3 17
2019-08-06 22:00:00 28.7 3 Noroeste 9 Norte 0 929 0.3 15
2019-08-06 21:00:00 32 8 Norte 25 Norte 0 928.6 -0.5 11
2019-08-06 20:00:00 34.5 19 Norte 37 Norte 0 928.4 -1.3 10
2019-08-06 19:00:00 36 22 Norte -- -- 0 928.7 -1.9 11
2019-08-06 18:00:00 35.8 19 Norte -- -- 0 929.1 -2.1 11
2019-08-06 17:00:00 35.6 17 Noroeste -- -- 0 929.7 -2 12
2019-08-06 16:00:00 36.2 -- -- -- -- 0 930.6 -1.3 11
2019-08-06 15:00:00 35.4 15 Noroeste 32 Norte 0 931.2 -1.1 13
2019-08-06 14:00:00 33.9 17 Noroeste 29 Norte 0 931.7 -0.9 14
2019-08-06 13:00:00 32.5 14 Norte 28 Noroeste 0 931.9 -0.6 17
2019-08-06 12:00:00 30.9 7 Noroeste 18 Noroeste 0 932.3 -0.1 18
2019-08-06 11:00:00 27.8 14 Noroeste 24 Noroeste 0 932.6 0.6 24
2019-08-06 10:00:00 25.2 11 Noroeste 15 Noroeste 0 932.5 0.6 30
2019-08-06 09:00:00 20.8 4 Este 6 Este 0 932.4 0.6 66
2019-08-06 08:00:00 16.9 5 Este 9 Este 0 932 0.1 73
2019-08-06 07:00:00 16.4 7 Este 11 Este 0 931.9 0 76
2019-08-06 06:00:00 17.5 4 Este 10 Este 0 931.8 0.2 66
2019-08-06 05:00:00 18.8 6 Este 9 Este 0 931.9 0.3 63
2019-08-06 04:00:00 20.4 6 Este 9 Este 0 931.9 0.5 59
2019-08-06 03:00:00 22.8 5 Sudeste 10 Este 0 931.6 0.7 65
2019-08-06 02:00:00 23.9 5 Sur 14 Sur 0 931.6 0.8 58
2019-08-06 01:00:00 23.7 6 Sur 16 Sur 0 931.4 1.1 40
2019-08-06 00:00:00 24.6 6 Este 15 Sur 0 930.9 1 21
2019-08-05 23:00:00 26.3 6 Este 8 Este 0 930.8 1 18
2019-08-05 22:00:00 30.5 8 Norte 9 Nordeste 0 930.3 0.6 14
2019-08-05 21:00:00 33.3 8 Norte 21 Norte 0 929.9 -0.1 13
2019-08-05 20:00:00 35.4 14 Norte 28 Norte 0 929.8 -0.8 13
2019-08-05 19:00:00 36.1 16 Norte 32 Norte 0 929.7 -1.4 12
2019-08-05 18:00:00 36.7 10 Noroeste 27 Norte 0 930 -1.8 13
2019-08-05 17:00:00 36.1 9 Noroeste 33 Norte 0 930.6 -1.8 14
2019-08-05 16:00:00 36 12 Noroeste 31 Noroeste 0 931.1 -1.8 14
2019-08-05 15:00:00 35.7 8 Norte 26 Oeste 0 931.8 -1.3 14
2019-08-05 14:00:00 34.2 9 Oeste 23 Noroeste 0 932.4 -0.9 16
2019-08-05 13:00:00 33 8 Noroeste 19 Norte 0 932.9 -0.6 20
2019-08-05 12:00:00 31.1 6 Noroeste 16 Oeste 0 933.1 -0.3 24
2019-08-05 11:00:00 28.1 5 Noroeste 11 Noroeste 0 933.3 -0.1 36
2019-08-05 10:00:00 25.3 3 Sudoeste 10 Este 0 933.5 0.5 51
2019-08-05 09:00:00 21.6 5 Este 11 Este 0 933.4 0.8 62
2019-08-05 08:00:00 17.8 5 Este 10 Sudeste 0 933.4 0.6 69
2019-08-05 07:00:00 17.3 9 Este 13 Este 0 933 0.1 75
2019-08-05 06:00:00 18 8 Este 12 Este 0 932.6 -0.4 67
2019-08-05 05:00:00 19.1 7 Este 13 Este 0 932.8 -0.2 66
2019-08-05 04:00:00 19.9 8 Este 15 Este 0 932.9 0 55
2019-08-05 03:00:00 21 8 Este 12 Sudoeste 0 933 0.8 51
2019-08-05 02:00:00 22.3 6 Sudeste 11 Este 0 933 1.1 45
2019-08-05 01:00:00 23.8 6 Sur 18 Sur 0 932.9 1.4 31
2019-08-05 00:00:00 24.3 4 Este 11 Este 0 932.2 1.4 25
2019-08-04 23:00:00 26.3 2 Sudeste 7 Este 0 931.9 1.4 24
2019-08-04 22:00:00 29.6 6 Este 14 Nordeste 0 931.5 1 19
2019-08-04 21:00:00 33 11 Nordeste 30 Norte 0 930.8 0.1 16
2019-08-04 20:00:00 34.8 19 Norte 28 Norte 0 930.5 -0.6 16
2019-08-04 19:00:00 35.4 18 Norte 30 Norte 0 930.5 -1.3 16
2019-08-04 18:00:00 35.9 10 Nordeste 27 Nordeste 0 930.7 -1.7 16
2019-08-04 17:00:00 36.2 15 Noroeste 31 Noroeste 0 931.1 -1.4 16
2019-08-04 16:00:00 35.3 15 Norte 35 Norte 0 931.8 -1.1 16
2019-08-04 15:00:00 34.7 17 Noroeste 31 Norte 0 932.4 -0.8 17
2019-08-04 14:00:00 34.4 8 Oeste 21 Norte 0 932.5 -0.8 17
2019-08-04 13:00:00 32.6 11 Noroeste 20 Norte 0 932.9 -0.5 18
2019-08-04 12:00:00 30.5 8 Noroeste 17 Norte 0 933.2 -0.1 22
2019-08-04 11:00:00 27.7 8 Noroeste 17 Norte 0 933.3 0.5 25
2019-08-04 10:00:00 25.2 6 Oeste 10 Oeste 0 933.4 0.8 37
2019-08-04 09:00:00 21.2 4 Sudeste 10 Sur 0 933.3 1 61
2019-08-04 08:00:00 18.1 7 Sur 15 Este 0 932.8 0.7 71
2019-08-04 07:00:00 17.5 7 Este 11 Este 0 932.6 0.6 73
2019-08-04 06:00:00 18.4 7 Este 10 Este 0 932.3 0.6 72
2019-08-04 05:00:00 20.1 4 Sur 8 Sur 0 932.1 0.5 69
2019-08-04 04:00:00 21.5 5 Sur 17 Sur 0 932 0.5 67
2019-08-04 03:00:00 23 9 Sudoeste 20 Sudoeste 0 931.7 0.5 63
2019-08-04 02:00:00 24.1 11 Sur 25 Sur 0 931.6 0.7 59
2019-08-04 01:00:00 25.4 10 Sudoeste 23 Sur 0 931.5 1.1 53
2019-08-04 00:00:00 27.3 13 Sudoeste 23 Sudoeste 0 931.2 1.4 46
2019-08-03 23:00:00 28.7 9 Sudoeste 18 Oeste 0 930.9 1.2 35
2019-08-03 22:00:00 30.7 9 Oeste 18 Oeste 0 930.4 0.5 24
2019-08-03 21:00:00 33.4 8 Norte 19 Norte 0 929.8 -0.6 15
2019-08-03 20:00:00 35.6 13 Norte 23 Noroeste 0 929.7 -1.3 13
2019-08-03 19:00:00 36.3 10 Norte 26 Noroeste 0 929.9 -1.6 14
2019-08-03 18:00:00 36.1 10 Norte 27 Norte 0 930.4 -1.7 13
2019-08-03 17:00:00 36.2 5 Nordeste 35 Norte 0 931 -1.6 13
2019-08-03 16:00:00 35.4 12 Norte 26 Norte 0 931.5 -1.5 14
2019-08-03 15:00:00 33.9 5 Sudoeste 18 Oeste 0 932.1 -1 16
2019-08-03 14:00:00 33 6 Oeste 17 Noroeste 0 932.6 -0.6 18
2019-08-03 13:00:00 31.8 6 Noroeste 17 Oeste 0 933 -0.2 24
2019-08-03 12:00:00 29.1 10 Sudoeste 23 Sudoeste 0 933.1 -0.1 36
2019-08-03 11:00:00 26.2 13 Sudoeste 30 Sudoeste 0 933.2 0.4 50
2019-08-03 10:00:00 23.6 17 Sudoeste 29 Sudoeste 0 933.2 0.6 62
2019-08-03 09:00:00 21.6 15 Sudoeste 30 Sudoeste 0 933.2 0.9 71
2019-08-03 08:00:00 19.9 8 Sur 18 Sur 0 932.8 0.7 59
2019-08-03 07:00:00 19.4 10 Sur 21 Sur 0 932.6 0.5 58
2019-08-03 06:00:00 20 9 Sur 28 Sur 0 932.3 0.2 55
2019-08-03 05:00:00 20.8 13 Sur 28 Sur 0 932.1 0.1 57
2019-08-03 04:00:00 21.7 17 Sur 38 Sudoeste 0 932.1 -0.2 54
2019-08-03 03:00:00 22.4 18 Sur 34 Sudoeste 0 932.1 0.1 50
2019-08-03 02:00:00 23.3 18 Sur 33 Sur 0 932 0.1 52
2019-08-03 01:00:00 24.6 18 Sur 34 Sudoeste 0 932.3 1 52
2019-08-03 00:00:00 27.6 19 Sudoeste 39 Sudoeste 0 932 1 48
2019-08-02 23:00:00 27.6 12 Sur 38 Sur 0 931.9 1.1 38
2019-08-02 22:00:00 29.5 9 Nordeste 11 Nordeste 0 931.3 0.5 16
2019-08-02 21:00:00 33.2 7 Nordeste 21 Norte 0 931 -0.2 13
2019-08-02 20:00:00 34.8 15 Norte 24 Norte 0 930.8 -0.7 12
2019-08-02 19:00:00 35.9 6 Nordeste 26 Nordeste 0 930.8 -1.5 12
2019-08-02 18:00:00 35.9 7 Noroeste 25 Norte 0 931.2 -1.3 13
2019-08-02 17:00:00 35.2 15 Norte 29 Noroeste 0 931.5 -1.4 13
2019-08-02 16:00:00 34.8 7 Nordeste 25 Nordeste 0 932.3 -0.9 14
2019-08-02 15:00:00 34.3 7 Norte 21 Norte 0 932.5 -0.9 16
2019-08-02 14:00:00 33.1 10 Norte 21 Norte 0 932.9 -0.5 17
2019-08-02 13:00:00 32.4 7 Noroeste 17 Nordeste 0 933.2 -0.2 21
2019-08-02 12:00:00 29.3 6 Noroeste 12 Norte 0 933.4 0.2 28
2019-08-02 11:00:00 27 5 Oeste 12 Oeste 0 933.4 0.5 39
2019-08-02 10:00:00 23.8 7 Sudoeste 11 Sudoeste 0 933.4 0.8 58
2019-08-02 09:00:00 20.8 3 Sur 8 Este 0 933.2 1.1 66
2019-08-02 08:00:00 16.7 4 Sudeste 9 Este 0 932.9 0.8 66
2019-08-02 07:00:00 15.2 5 Este 10 Este 0 932.6 0.9 62
2019-08-02 06:00:00 16 5 Sudeste 10 Este 0 932.1 0.4 51
2019-08-02 05:00:00 16.9 8 Este 14 Este 0 932.1 0.1 45
2019-08-02 04:00:00 18.1 8 Este 12 Este 0 931.7 0 35
2019-08-02 03:00:00 19.3 4 Sudeste 9 Sudoeste 0 931.7 0.5 35
2019-08-02 02:00:00 20.5 3 Sudeste 9 Sudeste 0 932 1.1 30
2019-08-02 01:00:00 22.6 4 Sur 10 Sur 0 931.7 1.6 29
2019-08-02 00:00:00 24.1 8 Norte 14 Norte 0 931.2 1.6 26
2019-08-01 23:00:00 26.7 7 Norte 13 Norte 0 930.9 1.7 23
2019-08-01 22:00:00 28.8 5 Norte 18 Norte 0 930.1 1 20
2019-08-01 21:00:00 31.9 15 Norte 33 Norte 0 929.6 0 16
2019-08-01 20:00:00 33.7 18 Norte 40 Noroeste 0 929.2 -0.5 15
2019-08-01 19:00:00 34.3 19 Norte 36 Norte 0 929.1 -1.3 16
2019-08-01 18:00:00 34.8 21 Noroeste 35 Norte 0 929.6 -1.2 17
2019-08-01 17:00:00 34.1 9 Noroeste 31 Noroeste 0 929.7 -1.4 20
2019-08-01 16:00:00 33.9 10 Noroeste 28 Noroeste 0 930.4 -1 22
2019-08-01 15:00:00 32.8 7 Noroeste 25 Noroeste 0 930.8 -0.8 24
2019-08-01 14:00:00 31.3 10 Noroeste 21 Noroeste 0 931.1 -0.6 29
2019-08-01 13:00:00 29.2 8 Oeste 19 Oeste 0 931.4 -0.2 38
2019-08-01 12:00:00 26.7 9 Oeste 28 Sudoeste 0 931.6 0.2 46
2019-08-01 11:00:00 23.8 14 Sudoeste 26 Sur 0 931.7 0.2 57
2019-08-01 10:00:00 21.8 15 Sudoeste 30 Sudoeste 0 931.6 0.2 66
2019-08-01 09:00:00 19.5 16 Sudoeste 35 Sudoeste 0 931.4 0.1 76
2019-08-01 08:00:00 17.8 14 Sur 29 Sur 0 931.5 0.2 84
2019-08-01 07:00:00 17.2 13 Sur 27 Sudoeste 0 931.4 0.1 87
2019-08-01 06:00:00 17.5 14 Sur 33 Sur 0 931.3 0 86
2019-08-01 05:00:00 17.9 17 Sudoeste 36 Sudoeste 0 931.3 -0.3 81
2019-08-01 04:00:00 18.6 17 Sur 37 Sur 0 931.3 -0.7 78
2019-08-01 03:00:00 19.1 16 Sur 33 Sur 0 931.3 -0.9 78
2019-08-01 02:00:00 19.5 17 Sur 35 Sur 0 931.6 -0.3 76
2019-08-01 01:00:00 20.2 19 Sur 38 Sur 0 932 0.8 72
2019-08-01 00:00:00 20.8 21 Sur 45 Sudoeste 0 932.2 1.5 70
2019-07-31 23:00:00 21.8 24 Sur 40 Sur 0 931.9 1.5 67
2019-07-31 22:00:00 23.1 28 Sur 48 Sur 0 931.2 1 62
2019-07-31 21:00:00 25.2 25 Sur 47 Sur 0 930.7 0.2 57
2019-07-31 20:00:00 27 25 Sur 46 Sur 0 930.4 -0.6 53
2019-07-31 19:00:00 28.9 26 Sur 49 Sudoeste 0 930.2 -1.3 46
2019-07-31 18:00:00 30.3 27 Sudoeste 53 Oeste 0 930.5 -1.5 37
2019-07-31 17:00:00 30.5 25 Sudoeste 49 Sudoeste 0 931 -1.5 36
2019-07-31 16:00:00 30.3 26 Sudoeste 46 Sudoeste 0 931.5 -1.4 36
2019-07-31 15:00:00 29.7 23 Sudoeste 53 Sur 0 932 -1.4 37
2019-07-31 14:00:00 28.4 24 Sudoeste 50 Sudoeste 0 932.5 -0.9 41
2019-07-31 13:00:00 27.5 27 Sudoeste 49 Sudoeste 0 932.9 -0.4 40
2019-07-31 12:00:00 26.1 24 Sudoeste 45 Sudoeste 0 933.4 0.2 45
2019-07-31 11:00:00 24.1 23 Sudoeste 49 Sudoeste 0 933.4 0.7 53
2019-07-31 10:00:00 22.1 26 Sur 49 Sur 0 933.3 0.5 68
2019-07-31 09:00:00 20 22 Sur 41 Sur 0 933.2 0 80
2019-07-31 08:00:00 19.5 23 Sur 37 Sur 0 932.7 -0.2 80
2019-07-31 07:00:00 19.5 22 Sur 37 Sur 0 932.8 -0.2 75
2019-07-31 06:00:00 19.8 18 Sur 35 Sur 0 933.2 0.2 77
2019-07-31 05:00:00 19.7 19 Sur 42 Sur 0 932.9 0.1 79
2019-07-31 04:00:00 19.9 28 Sur 47 Sur 0 933 0.2 77
2019-07-31 03:00:00 20.7 21 Sur 41 Sur 0 933 0.5 68
2019-07-31 02:00:00 21.6 23 Sur 40 Sur 0 932.8 0.7 62
2019-07-31 01:00:00 21.7 18 Sur 36 Sur 0 932.8 1.4 63
2019-07-31 00:00:00 22.6 20 Sur 37 Sur 0 932.5 2.1 66
2019-07-30 23:00:00 25.1 18 Sur 35 Sur 0 932.1 1.9 57
2019-07-30 22:00:00 28.1 18 Sudoeste 33 Sudoeste 0 931.4 1.1 50
2019-07-30 21:00:00 31.3 9 Nordeste 14 Norte 0 930.4 -0.3 16
2019-07-30 20:00:00 32.7 5 Nordeste 17 Norte 0 930.2 -0.8 16
2019-07-30 19:00:00 33.2 6 Oeste 23 Norte 0 930.3 -1.3 16
2019-07-30 18:00:00 32.6 10 Noroeste 26 Nordeste 0 930.7 -1.3 17
2019-07-30 17:00:00 32.8 12 Norte 27 Norte 0 931 -1.4 18
2019-07-30 16:00:00 32.2 17 Norte 35 Noroeste 0 931.6 -1.3 19
2019-07-30 15:00:00 31.6 12 Norte 24 Norte 0 932 -1.2 20
2019-07-30 14:00:00 30.4 15 Norte 31 Norte 0 932.4 -0.7 23
2019-07-30 13:00:00 28.9 9 Norte 18 Noroeste 0 932.9 0 21
2019-07-30 12:00:00 26.7 9 Norte 18 Norte 0 933.2 0.6 23
2019-07-30 11:00:00 24.2 7 Norte 14 Norte 0 933.1 0.9 27
2019-07-30 10:00:00 21 5 Noroeste 9 Norte 0 932.9 1.1 32
2019-07-30 09:00:00 17.5 6 Norte 12 Norte 0 932.6 1.2 38
2019-07-30 08:00:00 15.3 4 Noroeste 6 Norte 0 932.2 1 43
2019-07-30 07:00:00 13.8 0 Calma 10 Noroeste 0 931.8 0.8 41
2019-07-30 06:00:00 15.2 7 Noroeste 10 Noroeste 0 931.4 0.4 39
2019-07-30 05:00:00 16.7 4 Norte 9 Norte 0 931.2 0.1 35
2019-07-30 04:00:00 17.2 5 Norte 9 Norte 0 931 0.1 35
2019-07-30 03:00:00 18.3 3 Este 11 Norte 0 931 0.5 32
2019-07-30 02:00:00 19.6 4 Oeste 10 Noroeste 0 931.1 1.1 29
2019-07-30 01:00:00 20.5 7 Norte 14 Norte 0 930.9 1.7 25
2019-07-30 00:00:00 21.9 13 Norte 17 Nordeste 0 930.5 1.9 23
2019-07-29 23:00:00 23.9 13 Norte 17 Nordeste 0 930 1.5 21
2019-07-29 22:00:00 26.9 11 Norte 21 Norte 0 929.2 0.8 17
2019-07-29 21:00:00 30.3 18 Norte 31 Norte 0 928.6 0 14
2019-07-29 20:00:00 32.2 22 Noroeste 40 Noroeste 0 928.5 -0.4 14
2019-07-29 19:00:00 33.1 19 Noroeste -- -- 0 928.4 -0.8 18
2019-07-29 18:00:00 33.1 -- -- -- -- 0 928.6 -1.1 19
2019-07-29 17:00:00 32.7 21 Norte -- -- 0 928.9 -1 21
2019-07-29 16:00:00 32.5 -- -- -- -- 0 929.2 -1 21
2019-07-29 15:00:00 32.3 23 Noroeste 36 Noroeste 0 929.7 -0.6 24
2019-07-29 14:00:00 30.8 -- -- -- -- 0 929.9 -0.4 27
2019-07-29 13:00:00 29.8 14 Noroeste 28 Noroeste 0 930.2 0 28
2019-07-29 12:00:00 28 11 Norte 25 Noroeste 0 930.3 0.2 30
2019-07-29 11:00:00 25.6 11 Norte -- -- 0 930.3 0.6 37
2019-07-29 10:00:00 23.7 8 Noroeste -- -- 0 930.2 0.9 44
2019-07-29 09:00:00 20.9 3 Sudeste -- -- 0 930.1 1.1 49
2019-07-29 08:00:00 16.4 7 Este 13 Este 0 929.7 0.8 53
2019-07-29 07:00:00 14.3 9 Este -- -- 0 929.3 0.7 51
2019-07-29 06:00:00 15.3 6 Este -- -- 0 929 0.3 46
2019-07-29 05:00:00 16.4 9 Este 15 Este 0 928.9 -0.1 43
2019-07-29 04:00:00 16.3 10 Este 13 Este 0 928.6 -0.3 41
2019-07-29 03:00:00 17.7 9 Este 11 Este 0 928.7 0 40
2019-07-29 02:00:00 17.9 6 Sudeste 11 Este 0 929 0.2 37
2019-07-29 01:00:00 19.3 9 Este 11 Este 0 928.9 0.6 35
2019-07-29 00:00:00 20.7 6 Este 8 Este 0 928.7 0.8 33
2019-07-28 23:00:00 22.7 0 Calma 10 Nordeste 0 928.8 1.3 29
2019-07-28 22:00:00 25.1 9 Nordeste 13 Norte 0 928.3 1 26
2019-07-28 21:00:00 28.1 10 Norte 23 Nordeste 0 927.9 0.4 24
2019-07-28 20:00:00 29.1 17 Norte 31 Norte 0 927.5 -0.4 23
2019-07-28 19:00:00 29.4 13 Norte 28 Nordeste 0 927.3 -1.2 22
2019-07-28 18:00:00 29.7 12 Norte 32 Norte 0 927.5 -1.4 22
2019-07-28 17:00:00 29.7 6 Este 31 Nordeste 0 927.9 -1.3 22
2019-07-28 16:00:00 29.4 10 Norte 33 Norte 0 928.5 -0.9 23
2019-07-28 15:00:00 27.9 17 Norte 37 Norte 0 928.9 -0.7 26
2019-07-28 14:00:00 27 12 Noroeste 33 Nordeste 0 929.2 -0.7 29
2019-07-28 13:00:00 25.9 9 Nordeste 28 Nordeste 0 929.4 -0.6 31
2019-07-28 12:00:00 24.3 9 Norte 19 Norte 0 929.6 -0.2 33
2019-07-28 11:00:00 22.4 6 Nordeste 14 Nordeste 0 929.9 0.1 38
2019-07-28 10:00:00 20.8 5 Sudeste 13 Nordeste 0 930 0.9 43
2019-07-28 09:00:00 18.2 4 Este 9 Este 0 929.8 1.3 53
2019-07-28 08:00:00 14.8 3 Noroeste 10 Sudeste 0 929.8 1.2 63
2019-07-28 07:00:00 13.3 9 Este 11 Este 0 929.1 0.6 67
2019-07-28 06:00:00 14.5 4 Este 5 Este 0 928.5 0 66
2019-07-28 05:00:00 15.2 4 Noroeste 10 Noroeste 0 928.6 0.2 68
2019-07-28 04:00:00 16 4 Nordeste 13 Noroeste 0 928.5 0.1 60
2019-07-28 03:00:00 16.7 11 Norte 14 Norte 0 928.5 0.3 59
2019-07-28 02:00:00 17.8 11 Norte 17 Norte 0 928.4 0.9 60
2019-07-28 01:00:00 18.8 7 Norte 15 Norte 0 928.4 1.6 57
2019-07-28 00:00:00 20.2 12 Norte 19 Norte 0 928.2 2.3 47
2019-07-27 23:00:00 21.9 9 Norte 27 Norte 0 927.5 2.1 41
2019-07-26 12:00:00 27.7 12 Norte 22 Noroeste 0 930.6 -0.2 35
2019-07-26 11:00:00 26.6 11 Norte -- -- 0 930.6 0.2 38
2019-07-26 10:00:00 25.2 -- -- -- -- 0 930.9 0.6 39
2019-07-26 09:00:00 23.7 15 Norte 23 Norte 0 930.8 0.6 41
2019-07-26 08:00:00 21.5 6 Norte 12 Norte 0 930.4 0.1 43
2019-07-26 07:00:00 21.1 6 Noroeste 13 Norte 0 930.3 0 44
2019-07-26 06:00:00 21.3 9 Norte 13 Norte 0 930.2 -0.3 42
2019-07-26 05:00:00 22.6 7 Norte 13 Norte 0 930.3 -0.2 38
2019-07-26 04:00:00 22.1 7 Sudeste 10 Sudeste 0 930.3 0 43
2019-07-26 03:00:00 23.5 3 Sur 12 Sudoeste 0 930.5 0 40
2019-07-26 02:00:00 25 6 Sudoeste 29 Sudoeste 0 930.5 -0.1 36
2019-07-26 01:00:00 25.8 10 Sudoeste 31 Sudoeste 0 930.3 0 37
2019-07-26 00:00:00 27.4 18 Sudoeste 38 Sudoeste 0 930.5 0.6 32